Airfield :
LOGIN :

Register | Disclaimer

   EN    FR    IT 

 










Legend :    VFR   Marginal VFR   IFR   Intensive IFR   Very Intensive IFR
Visi :
Ceiling :
>= 8 km
>= 3000ft
5 to 8 km
1000 to 3000 ft
1500m to 5 km
500 to 1000 ft
800 to 1500m
200 to 500 ft
< 800m
< 200 ft
Symbols :   Thunderstorms  Fog  Heavy snow  Heavy precipitations  Wind > 20 kt
SIGMETs :     Misc.  Thunderstorms  Icing  Turbulence  Mountain Waves  Volcanic Ashes







- Airport Elevation : 348 ft
- IATA code : STN
- Download approach charts


EGSS - London Stansted

CURRENT METAR :
  • 240520Z AUTO VRB01KT 9999 NCD 05/02 Q1007

EXPIRED METARs :
  • 240450Z AUTO 28002KT 9999 NCD 05/03 Q1007
  • 240420Z AUTO 28003KT 9999 NCD 06/02 Q1007
  • 240350Z AUTO 24002KT 9999 NCD 05/02 Q1006
  • 240320Z AUTO 24003KT 9999 NCD 05/02 Q1006
  • 240250Z AUTO 26002KT 9999 NCD 06/02 Q1006

TAF TAF EGSS
Valid from the 24 at 06:00 until the 25 at 12:00 UTC


240458Z 2406/2512 28006KT 9999 FEW040
ATIS : +44 1279 669 325
No reported NOTAMs for that airfield.



MET'MAP, your aeronautical weather chart ! - Copyright ORBIFLY December 2007 - Disclaimer

ORBIFLY MET'MAP TEAM :

Programming & Development : Alexandra Zaïnal
Concept & Development : Baudouin d'Aumeries
Co-Development & Prog : Marc-Olivier Méhu
Technical & hardware support : Manuel Goepfert

Contact : metmap@orbifly.com




SOURCES & CREDITS :

   NOAA